sensor_id;sensor_type;location;lat;lon;timestamp;pressure;altitude;pressure_sealevel;temperature;humidity
76285;BME280;65096;50.998;7.098;2023-06-04T00:00:23;101286.78;;;15.36;30.12
76285;BME280;65096;50.998;7.098;2023-06-04T00:02:50;101285.09;;;15.31;30.40
76285;BME280;65096;50.998;7.098;2023-06-04T00:05:16;101281.66;;;15.17;30.58
76285;BME280;65096;50.998;7.098;2023-06-04T00:07:44;101288.63;;;15.15;30.37
76285;BME280;65096;50.998;7.098;2023-06-04T00:10:11;101291.19;;;15.18;30.23
76285;BME280;65096;50.998;7.098;2023-06-04T00:12:37;101289.44;;;15.17;30.61
76285;BME280;65096;50.998;7.098;2023-06-04T00:15:05;101277.34;;;15.16;30.57
76285;BME280;65096;50.998;7.098;2023-06-04T00:17:32;101272.16;;;15.05;30.66
76285;BME280;65096;50.998;7.098;2023-06-04T00:19:58;101266.13;;;15.02;30.79
76285;BME280;65096;50.998;7.098;2023-06-04T00:22:25;101261.78;;;15.04;30.35
76285;BME280;65096;50.998;7.098;2023-06-04T00:24:53;101263.56;;;15.00;30.45
76285;BME280;65096;50.998;7.098;2023-06-04T00:27:20;101253.16;;;14.90;30.51
76285;BME280;65096;50.998;7.098;2023-06-04T00:29:46;101272.19;;;14.96;30.46
76285;BME280;65096;50.998;7.098;2023-06-04T00:32:13;101257.50;;;14.84;30.56
76285;BME280;65096;50.998;7.098;2023-06-04T00:34:39;101272.22;;;14.90;30.47
76285;BME280;65096;50.998;7.098;2023-06-04T00:37:06;101273.09;;;14.81;31.00
76285;BME280;65096;50.998;7.098;2023-06-04T00:39:33;101273.09;;;14.84;30.47
76285;BME280;65096;50.998;7.098;2023-06-04T00:42:01;101272.22;;;14.78;31.16
76285;BME280;65096;50.998;7.098;2023-06-04T00:44:27;101272.22;;;14.78;30.74
76285;BME280;65096;50.998;7.098;2023-06-04T00:46:54;101280.03;;;14.79;31.17
76285;BME280;65096;50.998;7.098;2023-06-04T00:49:21;101287.81;;;14.84;31.14
76285;BME280;65096;50.998;7.098;2023-06-04T00:51:48;101272.22;;;14.79;31.68
76285;BME280;65096;50.998;7.098;2023-06-04T00:54:15;101283.47;;;14.81;31.16
76285;BME280;65096;50.998;7.098;2023-06-04T00:56:43;101284.38;;;14.80;31.38
76285;BME280;65096;50.998;7.098;2023-06-04T00:59:11;101280.03;;;14.76;31.46
76285;BME280;65096;50.998;7.098;2023-06-04T01:01:44;101286.09;;;14.75;31.57
76285;BME280;65096;50.998;7.098;2023-06-04T01:04:15;101286.09;;;14.75;31.66
76285;BME280;65096;50.998;7.098;2023-06-04T01:06:44;101280.06;;;14.64;32.00
76285;BME280;65096;50.998;7.098;2023-06-04T01:09:12;101281.78;;;14.67;31.94
76285;BME280;65096;50.998;7.098;2023-06-04T01:11:40;101288.69;;;14.62;32.28
76285;BME280;65096;50.998;7.098;2023-06-04T01:14:07;101271.44;;;14.50;32.68
76285;BME280;65096;50.998;7.098;2023-06-04T01:16:39;101287.00;;;14.53;32.30
76285;BME280;65096;50.998;7.098;2023-06-04T01:19:22;101286.13;;;14.51;33.37
76285;BME280;65096;50.998;7.098;2023-06-04T01:22:03;101290.41;;;14.48;32.94
76285;BME280;65096;50.998;7.098;2023-06-04T01:24:34;101292.13;;;14.43;33.03
76285;BME280;65096;50.998;7.098;2023-06-04T01:27:03;101288.72;;;14.38;33.25
76285;BME280;65096;50.998;7.098;2023-06-04T01:29:30;101291.28;;;14.35;33.04
76285;BME280;65096;50.998;7.098;2023-06-04T01:31:59;101283.50;;;14.18;33.21
76285;BME280;65096;50.998;7.098;2023-06-04T01:34:25;101302.53;;;14.28;33.18
76285;BME280;65096;50.998;7.098;2023-06-04T01:36:52;101301.66;;;14.23;33.37
76285;BME280;65096;50.998;7.098;2023-06-04T01:39:19;101293.00;;;14.16;34.08
76285;BME280;65096;50.998;7.098;2023-06-04T01:41:45;101296.47;;;14.15;34.34
76285;BME280;65096;50.998;7.098;2023-06-04T01:44:12;101305.09;;;14.10;34.34
76285;BME280;65096;50.998;7.098;2023-06-04T01:46:38;101301.63;;;14.05;34.40
76285;BME280;65096;50.998;7.098;2023-06-04T01:49:07;101301.63;;;14.00;34.77
76285;BME280;65096;50.998;7.098;2023-06-04T01:51:33;101292.09;;;13.93;34.79
76285;BME280;65096;50.998;7.098;2023-06-04T01:54:00;101297.28;;;13.90;34.57
76285;BME280;65096;50.998;7.098;2023-06-04T01:56:27;101299.00;;;13.85;34.83
76285;BME280;65096;50.998;7.098;2023-06-04T01:58:54;101294.69;;;13.80;34.83
76285;BME280;65096;50.998;7.098;2023-06-04T02:01:21;101294.66;;;13.77;35.06
76285;BME280;65096;50.998;7.098;2023-06-04T02:03:48;101302.44;;;13.72;35.31
76285;BME280;65096;50.998;7.098;2023-06-04T02:06:16;101303.28;;;13.67;35.08
76285;BME280;65096;50.998;7.098;2023-06-04T02:08:42;101304.16;;;13.64;35.78
76285;BME280;65096;50.998;7.098;2023-06-04T02:11:10;101298.91;;;13.58;35.53
76285;BME280;65096;50.998;7.098;2023-06-04T02:13:36;101305.78;;;13.52;35.54
76285;BME280;65096;50.998;7.098;2023-06-04T02:16:04;101306.63;;;13.49;36.03
76285;BME280;65096;50.998;7.098;2023-06-04T02:18:30;101306.63;;;13.46;36.13
76285;BME280;65096;50.998;7.098;2023-06-04T02:20:57;101309.22;;;13.41;36.19
76285;BME280;65096;50.998;7.098;2023-06-04T02:23:25;101309.19;;;13.40;35.60
76285;BME280;65096;50.998;7.098;2023-06-04T02:25:52;101310.88;;;13.32;35.94
76285;BME280;65096;50.998;7.098;2023-06-04T02:28:19;101306.53;;;13.25;35.85
76285;BME280;65096;50.998;7.098;2023-06-04T02:30:46;101315.13;;;13.19;35.92
76285;BME280;65096;50.998;7.098;2023-06-04T02:33:13;101321.16;;;13.20;36.25
76285;BME280;65096;50.998;7.098;2023-06-04T02:35:40;101307.31;;;13.12;36.51
76285;BME280;65096;50.998;7.098;2023-06-04T02:38:07;101314.19;;;13.10;36.30
76285;BME280;65096;50.998;7.098;2023-06-04T02:40:35;101312.47;;;13.06;36.57
76285;BME280;65096;50.998;7.098;2023-06-04T02:43:03;101309.00;;;13.02;36.85
76285;BME280;65096;50.998;7.098;2023-06-04T02:45:30;101316.72;;;12.96;36.88
76285;BME280;65096;50.998;7.098;2023-06-04T02:47:57;101308.03;;;12.85;36.86
76285;BME280;65096;50.998;7.098;2023-06-04T02:50:23;101323.56;;;12.88;37.36
76285;BME280;65096;50.998;7.098;2023-06-04T02:52:50;101320.97;;;12.84;37.36
76285;BME280;65096;50.998;7.098;2023-06-04T02:55:17;101320.06;;;12.80;37.55
76285;BME280;65096;50.998;7.098;2023-06-04T02:57:45;101318.28;;;12.75;37.53
76285;BME280;65096;50.998;7.098;2023-06-04T03:00:13;101315.69;;;12.70;37.48
76285;BME280;65096;50.998;7.098;2023-06-04T03:02:41;101319.09;;;12.65;37.61
76285;BME280;65096;50.998;7.098;2023-06-04T03:05:08;101319.03;;;12.59;38.01
76285;BME280;65096;50.998;7.098;2023-06-04T03:07:36;101320.75;;;12.55;37.73
76285;BME280;65096;50.998;7.098;2023-06-04T03:10:03;101313.78;;;12.51;38.02
76285;BME280;65096;50.998;7.098;2023-06-04T03:12:30;101319.81;;;12.49;38.22
76285;BME280;65096;50.998;7.098;2023-06-04T03:14:58;101312.03;;;12.46;38.00
76285;BME280;65096;50.998;7.098;2023-06-04T03:17:26;101311.97;;;12.41;38.33
76285;BME280;65096;50.998;7.098;2023-06-04T03:19:52;101313.69;;;12.38;38.63
76285;BME280;65096;50.998;7.098;2023-06-04T03:22:21;101315.34;;;12.33;38.49
76285;BME280;65096;50.998;7.098;2023-06-04T03:24:48;101317.03;;;12.29;38.68
76285;BME280;65096;50.998;7.098;2023-06-04T03:27:14;101321.31;;;12.24;38.77
76285;BME280;65096;50.998;7.098;2023-06-04T03:29:41;101316.97;;;12.22;38.91
76285;BME280;65096;50.998;7.098;2023-06-04T03:32:09;101317.78;;;12.16;38.88
76285;BME280;65096;50.998;7.098;2023-06-04T03:34:36;101314.25;;;12.10;38.70
76285;BME280;65096;50.998;7.098;2023-06-04T03:37:03;101312.50;;;12.04;39.63
76285;BME280;65096;50.998;7.098;2023-06-04T03:39:29;101318.50;;;12.01;39.29
76285;BME280;65096;50.998;7.098;2023-06-04T03:41:56;101313.28;;;11.98;39.09
76285;BME280;65096;50.998;7.098;2023-06-04T03:44:22;101306.38;;;11.94;39.67
76285;BME280;65096;50.998;7.098;2023-06-04T03:46:49;101309.78;;;11.92;39.48
76285;BME280;65096;50.998;7.098;2023-06-04T03:49:17;101310.59;;;11.86;39.86
76285;BME280;65096;50.998;7.098;2023-06-04T03:51:44;101308.81;;;11.84;39.92
76285;BME280;65096;50.998;7.098;2023-06-04T03:54:11;101318.25;;;11.80;40.05
76285;BME280;65096;50.998;7.098;2023-06-04T03:56:43;101312.22;;;11.77;40.06
76285;BME280;65096;50.998;7.098;2023-06-04T03:59:09;101311.31;;;11.73;39.78
76285;BME280;65096;50.998;7.098;2023-06-04T04:01:36;101308.69;;;11.70;40.61
76285;BME280;65096;50.998;7.098;2023-06-04T04:04:04;101301.75;;;11.66;40.54
76285;BME280;65096;50.998;7.098;2023-06-04T04:06:32;101301.75;;;11.66;40.41
76285;BME280;65096;50.998;7.098;2023-06-04T04:08:58;101298.28;;;11.64;41.49
76285;BME280;65096;50.998;7.098;2023-06-04T04:11:25;101299.09;;;11.60;41.71
76285;BME280;65096;50.998;7.098;2023-06-04T04:13:52;101297.34;;;11.59;40.93
76285;BME280;65096;50.998;7.098;2023-06-04T04:16:18;101299.84;;;11.50;39.64
76285;BME280;65096;50.998;7.098;2023-06-04T04:18:45;101297.06;;;11.37;40.17
76285;BME280;65096;50.998;7.098;2023-06-04T04:21:11;101305.72;;;11.42;40.47
76285;BME280;65096;50.998;7.098;2023-06-04T04:23:39;101303.03;;;11.34;39.79
76285;BME280;65096;50.998;7.098;2023-06-04T04:26:07;101294.34;;;11.26;40.02
76285;BME280;65096;50.998;7.098;2023-06-04T04:28:34;101302.13;;;11.31;40.58
76285;BME280;65096;50.998;7.098;2023-06-04T04:31:01;101295.25;;;11.31;40.47
76285;BME280;65096;50.998;7.098;2023-06-04T04:33:28;101304.91;;;11.44;40.55
76285;BME280;65096;50.998;7.098;2023-06-04T04:35:57;101301.47;;;11.45;40.64
76285;BME280;65096;50.998;7.098;2023-06-04T04:38:24;101302.28;;;11.41;40.85
76285;BME280;65096;50.998;7.098;2023-06-04T04:40:52;101307.47;;;11.43;40.71
76285;BME280;65096;50.998;7.098;2023-06-04T04:43:28;101305.75;;;11.43;40.33
76285;BME280;65096;50.998;7.098;2023-06-04T04:45:55;101307.47;;;11.43;40.11
76285;BME280;65096;50.998;7.098;2023-06-04T04:48:21;101310.97;;;11.46;40.31
76285;BME280;65096;50.998;7.098;2023-06-04T04:50:48;101313.59;;;11.49;40.06
76285;BME280;65096;50.998;7.098;2023-06-04T04:53:15;101310.22;;;11.55;39.75
76285;BME280;65096;50.998;7.098;2023-06-04T04:55:42;101309.38;;;11.56;40.22
76285;BME280;65096;50.998;7.098;2023-06-04T04:58:10;101313.63;;;11.52;39.71
76285;BME280;65096;50.998;7.098;2023-06-04T05:00:36;101309.34;;;11.51;40.34
76285;BME280;65096;50.998;7.098;2023-06-04T05:03:03;101305.06;;;11.56;40.31
76285;BME280;65096;50.998;7.098;2023-06-04T05:05:30;101292.19;;;11.59;39.90
76285;BME280;65096;50.998;7.098;2023-06-04T05:07:56;101313.84;;;11.69;39.70
76285;BME280;65096;50.998;7.098;2023-06-04T05:10:23;101312.16;;;11.74;39.83
76285;BME280;65096;50.998;7.098;2023-06-04T05:12:51;101316.53;;;11.79;39.75
76285;BME280;65096;50.998;7.098;2023-06-04T05:15:19;101319.19;;;11.87;39.38
76285;BME280;65096;50.998;7.098;2023-06-04T05:17:46;101319.25;;;11.93;39.49
76285;BME280;65096;50.998;7.098;2023-06-04T05:20:13;101327.06;;;11.96;39.92
76285;BME280;65096;50.998;7.098;2023-06-04T05:22:41;101337.44;;;12.00;40.36
76285;BME280;65096;50.998;7.098;2023-06-04T05:25:08;101339.19;;;12.04;41.03
76285;BME280;65096;50.998;7.098;2023-06-04T05:27:35;101331.47;;;12.09;40.59
76285;BME280;65096;50.998;7.098;2023-06-04T05:30:02;101330.66;;;12.12;41.21
76285;BME280;65096;50.998;7.098;2023-06-04T05:32:30;101325.50;;;12.12;41.78
76285;BME280;65096;50.998;7.098;2023-06-04T05:34:57;101322.97;;;12.18;40.96
76285;BME280;65096;50.998;7.098;2023-06-04T05:37:25;101328.16;;;12.22;41.69
76285;BME280;65096;50.998;7.098;2023-06-04T05:39:54;101328.28;;;12.31;41.43
76285;BME280;65096;50.998;7.098;2023-06-04T05:42:21;101336.06;;;12.36;41.53
76285;BME280;65096;50.998;7.098;2023-06-04T05:44:48;101330.94;;;12.42;41.44
76285;BME280;65096;50.998;7.098;2023-06-04T05:47:15;101333.56;;;12.45;41.24
76285;BME280;65096;50.998;7.098;2023-06-04T05:49:43;101334.47;;;12.51;41.02
76285;BME280;65096;50.998;7.098;2023-06-04T05:52:10;101341.47;;;12.57;40.92
76285;BME280;65096;50.998;7.098;2023-06-04T05:54:38;101345.78;;;12.61;41.76
76285;BME280;65096;50.998;7.098;2023-06-04T05:57:05;101351.00;;;12.65;40.98
76285;BME280;65096;50.998;7.098;2023-06-04T05:59:32;101345.91;;;12.73;41.43
76285;BME280;65096;50.998;7.098;2023-06-04T06:01:59;101350.22;;;12.75;41.52
76285;BME280;65096;50.998;7.098;2023-06-04T06:04:26;101355.47;;;12.86;40.81
76285;BME280;65096;50.998;7.098;2023-06-04T06:06:54;101351.25;;;12.95;41.42
76285;BME280;65096;50.998;7.098;2023-06-04T06:09:21;101358.16;;;12.99;40.89
76285;BME280;65096;50.998;7.098;2023-06-04T06:11:48;101359.06;;;13.03;40.67
76285;BME280;65096;50.998;7.098;2023-06-04T06:14:14;101352.19;;;13.08;40.47
76285;BME280;65096;50.998;7.098;2023-06-04T06:16:41;101368.66;;;13.20;40.27
76285;BME280;65096;50.998;7.098;2023-06-04T06:19:08;101359.22;;;13.30;40.52
76285;BME280;65096;50.998;7.098;2023-06-04T06:21:34;101361.84;;;13.40;39.59
76285;BME280;65096;50.998;7.098;2023-06-04T06:24:03;101360.16;;;13.42;40.63
76285;BME280;65096;50.998;7.098;2023-06-04T06:26:29;101369.75;;;13.56;39.98
76285;BME280;65096;50.998;7.098;2023-06-04T06:28:56;101365.47;;;13.68;40.18
76285;BME280;65096;50.998;7.098;2023-06-04T06:31:23;101371.56;;;13.79;40.18
76285;BME280;65096;50.998;7.098;2023-06-04T06:33:51;101374.22;;;13.88;40.04
76285;BME280;65096;50.998;7.098;2023-06-04T06:36:17;101375.13;;;14.02;40.08
76285;BME280;65096;50.998;7.098;2023-06-04T06:38:45;101376.00;;;14.07;39.73
76285;BME280;65096;50.998;7.098;2023-06-04T06:41:13;101379.47;;;14.21;39.95
76285;BME280;65096;50.998;7.098;2023-06-04T06:43:40;101375.19;;;14.34;40.35
76285;BME280;65096;50.998;7.098;2023-06-04T06:46:07;101377.78;;;14.37;39.15
76285;BME280;65096;50.998;7.098;2023-06-04T06:48:33;101370.88;;;14.39;39.09
76285;BME280;65096;50.998;7.098;2023-06-04T06:51:00;101380.44;;;14.53;39.13
76285;BME280;65096;50.998;7.098;2023-06-04T06:53:27;101379.56;;;14.72;39.22
76285;BME280;65096;50.998;7.098;2023-06-04T06:55:53;101383.88;;;14.92;37.43
76285;BME280;65096;50.998;7.098;2023-06-04T06:58:22;101380.44;;;14.97;37.08
76285;BME280;65096;50.998;7.098;2023-06-04T07:00:49;101377.81;;;15.06;36.83
76285;BME280;65096;50.998;7.098;2023-06-04T07:03:16;101393.38;;;15.11;36.40
76285;BME280;65096;50.998;7.098;2023-06-04T07:05:42;101384.69;;;15.28;37.24
76285;BME280;65096;50.998;7.098;2023-06-04T07:08:09;101379.47;;;15.34;36.83
76285;BME280;65096;50.998;7.098;2023-06-04T07:10:36;101379.44;;;15.60;36.63
76285;BME280;65096;50.998;7.098;2023-06-04T07:13:02;101374.19;;;15.75;34.24
76285;BME280;65096;50.998;7.098;2023-06-04T07:15:30;101377.50;;;16.02;36.69
76285;BME280;65096;50.998;7.098;2023-06-04T07:17:57;101379.19;;;16.15;37.07
76285;BME280;65096;50.998;7.098;2023-06-04T07:20:23;101378.25;;;16.26;36.17
76285;BME280;65096;50.998;7.098;2023-06-04T07:22:50;101377.41;;;16.25;36.46
76285;BME280;65096;50.998;7.098;2023-06-04T07:25:17;101385.06;;;16.45;36.03
76285;BME280;65096;50.998;7.098;2023-06-04T07:27:43;101381.56;;;16.52;35.36
76285;BME280;65096;50.998;7.098;2023-06-04T07:30:10;101374.44;;;16.75;34.02
76285;BME280;65096;50.998;7.098;2023-06-04T07:32:38;101378.66;;;16.88;31.97
76285;BME280;65096;50.998;7.098;2023-06-04T07:35:06;101381.97;;;17.09;33.79
76285;BME280;65096;50.998;7.098;2023-06-04T07:37:33;101373.91;;;17.32;34.58
76285;BME280;65096;50.998;7.098;2023-06-04T07:40:00;101378.19;;;17.36;33.01
76285;BME280;65096;50.998;7.098;2023-06-04T07:42:26;101377.22;;;17.46;32.91
76285;BME280;65096;50.998;7.098;2023-06-04T07:44:53;101378.72;;;17.67;33.35
76285;BME280;65096;50.998;7.098;2023-06-04T07:47:20;101361.97;;;17.83;32.58
76285;BME280;65096;50.998;7.098;2023-06-04T07:49:48;101375.59;;;18.09;32.64
76285;BME280;65096;50.998;7.098;2023-06-04T07:52:14;101366.06;;;18.05;32.14
76285;BME280;65096;50.998;7.098;2023-06-04T07:54:41;101369.38;;;18.16;31.00
76285;BME280;65096;50.998;7.098;2023-06-04T07:57:08;101366.69;;;18.22;30.33
76285;BME280;65096;50.998;7.098;2023-06-04T07:59:35;101370.06;;;18.30;29.94
76285;BME280;65096;50.998;7.098;2023-06-04T08:02:02;101366.13;;;18.58;28.17
76285;BME280;65096;50.998;7.098;2023-06-04T08:04:30;101354.06;;;18.51;27.16
76285;BME280;65096;50.998;7.098;2023-06-04T08:06:59;101374.50;;;18.81;29.05
76285;BME280;65096;50.998;7.098;2023-06-04T08:09:26;101360.84;;;18.62;27.55
76285;BME280;65096;50.998;7.098;2023-06-04T08:11:53;101372.53;;;18.93;29.58
76285;BME280;65096;50.998;7.098;2023-06-04T08:14:23;101355.69;;;19.10;29.55
76285;BME280;65096;50.998;7.098;2023-06-04T08:16:52;101356.31;;;19.22;26.18
76285;BME280;65096;50.998;7.098;2023-06-04T08:19:18;101363.16;;;19.29;28.09
76285;BME280;65096;50.998;7.098;2023-06-04T08:21:45;101357.41;;;19.56;26.45
76285;BME280;65096;50.998;7.098;2023-06-04T08:24:14;101364.41;;;19.54;26.04
76285;BME280;65096;50.998;7.098;2023-06-04T08:26:41;101366.28;;;19.48;26.98
76285;BME280;65096;50.998;7.098;2023-06-04T08:29:08;101366.06;;;19.58;26.07
76285;BME280;65096;50.998;7.098;2023-06-04T08:31:34;101363.03;;;19.78;27.60
76285;BME280;65096;50.998;7.098;2023-06-04T08:34:01;101341.84;;;19.90;25.88
76285;BME280;65096;50.998;7.098;2023-06-04T08:36:30;101334.41;;;20.11;26.38
76285;BME280;65096;50.998;7.098;2023-06-04T08:38:57;101361.41;;;20.50;26.90
76285;BME280;65096;50.998;7.098;2023-06-04T08:41:30;101363.38;;;20.77;27.74
76285;BME280;65096;50.998;7.098;2023-06-04T08:44:01;101364.84;;;20.89;25.98
76285;BME280;65096;50.998;7.098;2023-06-04T08:46:32;101348.16;;;20.91;26.03
76285;BME280;65096;50.998;7.098;2023-06-04T08:49:00;101343.81;;;20.90;25.36
76285;BME280;65096;50.998;7.098;2023-06-04T08:51:27;101357.34;;;21.07;24.76
76285;BME280;65096;50.998;7.098;2023-06-04T08:53:55;101364.72;;;21.25;23.88
76285;BME280;65096;50.998;7.098;2023-06-04T08:56:22;101358.88;;;21.48;23.37
76285;BME280;65096;50.998;7.098;2023-06-04T08:58:51;101356.72;;;21.62;24.20
76285;BME280;65096;50.998;7.098;2023-06-04T09:01:18;101368.28;;;21.84;23.14
76285;BME280;65096;50.998;7.098;2023-06-04T09:03:45;101353.84;;;21.71;20.51
76285;BME280;65096;50.998;7.098;2023-06-04T09:06:12;101354.03;;;21.93;21.98
76285;BME280;65096;50.998;7.098;2023-06-04T09:08:43;101362.84;;;21.92;21.48
76285;BME280;65096;50.998;7.098;2023-06-04T09:11:13;101366.00;;;22.03;21.56
76285;BME280;65096;50.998;7.098;2023-06-04T09:13:43;101352.09;;;21.70;21.49
76285;BME280;65096;50.998;7.098;2023-06-04T09:16:14;101371.44;;;21.67;21.48
76285;BME280;65096;50.998;7.098;2023-06-04T09:18:41;101346.00;;;21.97;22.86
76285;BME280;65096;50.998;7.098;2023-06-04T09:21:08;101349.44;;;22.54;20.22
76285;BME280;65096;50.998;7.098;2023-06-04T09:23:37;101361.16;;;22.72;20.53
76285;BME280;65096;50.998;7.098;2023-06-04T09:26:07;101365.50;;;22.73;19.43
76285;BME280;65096;50.998;7.098;2023-06-04T09:28:34;101364.84;;;22.92;20.45
76285;BME280;65096;50.998;7.098;2023-06-04T09:31:01;101358.00;;;23.13;21.24
76285;BME280;65096;50.998;7.098;2023-06-04T09:33:29;101363.16;;;23.41;19.90
76285;BME280;65096;50.998;7.098;2023-06-04T09:35:57;101340.69;;;23.31;19.48
76285;BME280;65096;50.998;7.098;2023-06-04T09:38:33;101343.47;;;23.51;19.71
76285;BME280;65096;50.998;7.098;2023-06-04T09:40:59;101343.91;;;22.08;18.80
76285;BME280;65096;50.998;7.098;2023-06-04T09:43:30;101364.50;;;22.77;17.53
76285;BME280;65096;50.998;7.098;2023-06-04T09:46:08;101355.72;;;23.27;20.00
76285;BME280;65096;50.998;7.098;2023-06-04T09:48:37;101361.41;;;23.64;18.03
76285;BME280;65096;50.998;7.098;2023-06-04T09:51:09;101367.72;;;24.05;19.42
76285;BME280;65096;50.998;7.098;2023-06-04T09:53:36;101362.84;;;24.39;19.07
76285;BME280;65096;50.998;7.098;2023-06-04T09:56:03;101351.28;;;24.43;19.27
76285;BME280;65096;50.998;7.098;2023-06-04T09:58:32;101354.00;;;24.83;18.89
76285;BME280;65096;50.998;7.098;2023-06-04T10:01:02;101360.31;;;24.79;18.86
76285;BME280;65096;50.998;7.098;2023-06-04T10:03:33;101361.91;;;25.03;18.79
76285;BME280;65096;50.998;7.098;2023-06-04T10:06:04;101364.84;;;25.17;17.02
76285;BME280;65096;50.998;7.098;2023-06-04T10:08:32;101357.94;;;24.73;16.67
76285;BME280;65096;50.998;7.098;2023-06-04T10:11:00;101365.09;;;24.91;17.71
76285;BME280;65096;50.998;7.098;2023-06-04T10:13:29;101351.06;;;25.09;18.25
76285;BME280;65096;50.998;7.098;2023-06-04T10:15:57;101352.66;;;25.53;17.54
76285;BME280;65096;50.998;7.098;2023-06-04T10:18:27;101350.22;;;25.67;17.38
76285;BME280;65096;50.998;7.098;2023-06-04T10:20:55;101353.22;;;25.21;16.38
76285;BME280;65096;50.998;7.098;2023-06-04T10:23:23;101326.56;;;25.27;18.17
76285;BME280;65096;50.998;7.098;2023-06-04T10:25:52;101340.03;;;25.97;17.34
76285;BME280;65096;50.998;7.098;2023-06-04T10:28:20;101345.16;;;26.00;15.87
76285;BME280;65096;50.998;7.098;2023-06-04T10:30:47;101341.84;;;26.32;15.37
76285;BME280;65096;50.998;7.098;2023-06-04T10:33:17;101334.47;;;26.39;15.29
76285;BME280;65096;50.998;7.098;2023-06-04T10:35:45;101342.13;;;26.45;15.80
76285;BME280;65096;50.998;7.098;2023-06-04T10:38:13;101326.09;;;26.82;15.88
76285;BME280;65096;50.998;7.098;2023-06-04T10:40:43;101327.84;;;27.00;15.44
76285;BME280;65096;50.998;7.098;2023-06-04T10:43:11;101335.25;;;27.10;15.41
76285;BME280;65096;50.998;7.098;2023-06-04T10:45:38;101340.25;;;27.32;16.47
76285;BME280;65096;50.998;7.098;2023-06-04T10:48:06;101334.16;;;27.47;15.09
76285;BME280;65096;50.998;7.098;2023-06-04T10:50:33;101324.31;;;27.49;15.81
76285;BME280;65096;50.998;7.098;2023-06-04T10:53:00;101324.50;;;27.46;16.60
76285;BME280;65096;50.998;7.098;2023-06-04T10:55:30;101323.50;;;26.99;15.96
76285;BME280;65096;50.998;7.098;2023-06-04T10:57:59;101327.13;;;27.13;16.07
76285;BME280;65096;50.998;7.098;2023-06-04T11:00:36;101328.94;;;27.46;15.38
76285;BME280;65096;50.998;7.098;2023-06-04T11:03:04;101326.31;;;27.77;15.65
76285;BME280;65096;50.998;7.098;2023-06-04T11:05:35;101321.97;;;27.76;15.08
76285;BME280;65096;50.998;7.098;2023-06-04T11:08:03;101332.34;;;28.11;15.69
76285;BME280;65096;50.998;7.098;2023-06-04T11:10:31;101321.81;;;28.25;14.73
76285;BME280;65096;50.998;7.098;2023-06-04T11:13:01;101319.28;;;28.38;15.30
76285;BME280;65096;50.998;7.098;2023-06-04T11:15:37;101319.28;;;28.54;14.71
76285;BME280;65096;50.998;7.098;2023-06-04T11:18:04;101320.50;;;28.32;15.12
76285;BME280;65096;50.998;7.098;2023-06-04T11:20:31;101319.78;;;28.60;15.22
76285;BME280;65096;50.998;7.098;2023-06-04T11:22:58;101311.69;;;28.91;14.38
76285;BME280;65096;50.998;7.098;2023-06-04T11:25:29;101315.56;;;28.86;14.42
76285;BME280;65096;50.998;7.098;2023-06-04T11:28:00;101313.41;;;28.92;14.40
76285;BME280;65096;50.998;7.098;2023-06-04T11:30:28;101309.69;;;28.95;14.67
76285;BME280;65096;50.998;7.098;2023-06-04T11:33:02;101313.28;;;28.80;14.55
76285;BME280;65096;50.998;7.098;2023-06-04T11:35:29;101312.22;;;28.68;14.81
76285;BME280;65096;50.998;7.098;2023-06-04T11:37:57;101313.78;;;28.57;13.88
76285;BME280;65096;50.998;7.098;2023-06-04T11:40:24;101312.22;;;28.07;13.18
76285;BME280;65096;50.998;7.098;2023-06-04T11:42:52;101308.94;;;28.49;14.81
76285;BME280;65096;50.998;7.098;2023-06-04T11:45:21;101295.63;;;29.08;15.19
76285;BME280;65096;50.998;7.098;2023-06-04T11:47:51;101296.84;;;29.45;14.66
76285;BME280;65096;50.998;7.098;2023-06-04T11:50:18;101305.84;;;29.14;13.58
76285;BME280;65096;50.998;7.098;2023-06-04T11:52:44;101296.97;;;29.15;14.49
76285;BME280;65096;50.998;7.098;2023-06-04T11:55:12;101296.34;;;28.96;14.75
76285;BME280;65096;50.998;7.098;2023-06-04T11:57:39;101293.63;;;29.26;14.70
76285;BME280;65096;50.998;7.098;2023-06-04T12:00:07;101287.59;;;29.78;14.16
76285;BME280;65096;50.998;7.098;2023-06-04T12:02:37;101281.19;;;29.54;14.09
76285;BME280;65096;50.998;7.098;2023-06-04T12:05:11;101296.75;;;29.18;14.52
76285;BME280;65096;50.998;7.098;2023-06-04T12:07:38;101291.72;;;29.00;13.85
76285;BME280;65096;50.998;7.098;2023-06-04T12:10:05;101287.16;;;29.02;15.22
76285;BME280;65096;50.998;7.098;2023-06-04T12:12:32;101294.94;;;29.47;14.51
76285;BME280;65096;50.998;7.098;2023-06-04T12:15:00;101298.00;;;29.55;13.86
76285;BME280;65096;50.998;7.098;2023-06-04T12:17:26;101287.69;;;29.77;14.46
76285;BME280;65096;50.998;7.098;2023-06-04T12:19:54;101285.63;;;30.09;14.48
76285;BME280;65096;50.998;7.098;2023-06-04T12:22:22;101291.25;;;30.04;14.04
76285;BME280;65096;50.998;7.098;2023-06-04T12:24:50;101282.41;;;29.63;13.79
76285;BME280;65096;50.998;7.098;2023-06-04T12:27:19;101285.22;;;29.74;15.04
76285;BME280;65096;50.998;7.098;2023-06-04T12:29:54;101280.53;;;29.92;14.42
76285;BME280;65096;50.998;7.098;2023-06-04T12:32:21;101275.00;;;30.21;14.08
76285;BME280;65096;50.998;7.098;2023-06-04T12:34:48;101282.56;;;29.74;14.29
76285;BME280;65096;50.998;7.098;2023-06-04T12:37:16;101274.72;;;30.26;15.63
76285;BME280;65096;50.998;7.098;2023-06-04T12:39:43;101271.84;;;30.55;14.24
76285;BME280;65096;50.998;7.098;2023-06-04T12:42:09;101265.47;;;30.58;14.50
76285;BME280;65096;50.998;7.098;2023-06-04T12:44:36;101273.78;;;30.91;15.26
76285;BME280;65096;50.998;7.098;2023-06-04T12:47:03;101266.84;;;30.76;14.81
76285;BME280;65096;50.998;7.098;2023-06-04T12:49:30;101250.44;;;30.69;14.13
76285;BME280;65096;50.998;7.098;2023-06-04T12:51:57;101271.31;;;30.63;14.44